createdAt,value
2022-11-10T00:01:06.517Z,100189.56
2022-11-10T00:03:33.728Z,100191.34
2022-11-10T00:06:03.437Z,100194.00
2022-11-10T00:08:30.441Z,100194.00
2022-11-10T00:11:01.831Z,100194.00
2022-11-10T00:13:31.945Z,100187.00
2022-11-10T00:16:19.135Z,100186.19
2022-11-10T00:18:45.757Z,100191.47
2022-11-10T00:21:16.144Z,100186.25
2022-11-10T00:23:42.781Z,100196.88
2022-11-10T00:26:20.978Z,100190.72
2022-11-10T00:28:47.650Z,100189.88
2022-11-10T00:31:17.366Z,100192.53
2022-11-10T00:33:44.552Z,100197.81
2022-11-10T00:36:11.821Z,100191.66
2022-11-10T00:38:41.321Z,100198.75
2022-11-10T00:41:08.045Z,100204.16
2022-11-10T00:43:37.652Z,100203.41
2022-11-10T00:46:04.371Z,100202.56
2022-11-10T00:48:33.924Z,100205.31
2022-11-10T00:51:00.480Z,100211.59
2022-11-10T00:53:27.164Z,100213.47
2022-11-10T00:55:53.827Z,100213.47
2022-11-10T00:58:20.469Z,100213.59
2022-11-10T01:00:47.106Z,100211.00
2022-11-10T01:03:19.580Z,100215.47
2022-11-10T01:05:46.392Z,100213.88
2022-11-10T01:08:13.023Z,100217.50
2022-11-10T01:10:39.738Z,100208.69
2022-11-10T01:13:06.378Z,100208.75
2022-11-10T01:15:38.373Z,100212.38
2022-11-10T01:18:06.356Z,100214.13
2022-11-10T01:20:36.064Z,100213.34
2022-11-10T01:23:02.679Z,100217.81
2022-11-10T01:25:29.260Z,100217.81
2022-11-10T01:27:55.873Z,100217.81
2022-11-10T01:30:22.445Z,100221.47
2022-11-10T01:32:51.911Z,100214.50
2022-11-10T01:35:18.539Z,100212.81
2022-11-10T01:37:47.319Z,100218.19
2022-11-10T01:40:14.273Z,100221.72
2022-11-10T01:42:55.551Z,100221.72
2022-11-10T01:45:24.947Z,100224.44
2022-11-10T01:48:00.931Z,100225.38
2022-11-10T01:50:33.014Z,100224.63
2022-11-10T01:53:03.311Z,100230.09
2022-11-10T01:55:31.123Z,100231.91
2022-11-10T01:57:58.237Z,100233.75
2022-11-10T02:00:25.087Z,100237.25
2022-11-10T02:03:01.600Z,100229.31
2022-11-10T02:05:28.332Z,100236.25
2022-11-10T02:07:56.947Z,100236.22
2022-11-10T02:10:23.632Z,100237.00
2022-11-10T02:12:50.424Z,100236.16
2022-11-10T02:15:18.264Z,100243.03
2022-11-10T02:17:47.365Z,100244.78
2022-11-10T02:20:18.757Z,100245.59
2022-11-10T02:22:45.416Z,100250.88
2022-11-10T02:25:15.532Z,100249.00
2022-11-10T02:27:42.100Z,100244.47
2022-11-10T02:30:09.206Z,100254.94
2022-11-10T02:32:36.295Z,100250.41
2022-11-10T02:35:03.367Z,100249.44
2022-11-10T02:37:30.017Z,100247.63
2022-11-10T02:39:56.572Z,100253.75
2022-11-10T02:42:23.173Z,100256.34
2022-11-10T02:44:49.743Z,100258.09
2022-11-10T02:47:16.303Z,100263.25
2022-11-10T02:49:44.989Z,100252.69
2022-11-10T02:52:11.571Z,100261.41
2022-11-10T02:54:38.157Z,100269.22
2022-11-10T02:57:04.756Z,100263.81
2022-11-10T02:59:31.333Z,100265.50
2022-11-10T03:01:57.887Z,100269.78
2022-11-10T03:04:24.531Z,100269.69
2022-11-10T03:06:51.174Z,100266.19
2022-11-10T03:09:17.825Z,100268.78
2022-11-10T03:11:44.409Z,100268.72
2022-11-10T03:14:10.990Z,100276.63
2022-11-10T03:16:37.539Z,100280.00
2022-11-10T03:19:04.300Z,100285.22
2022-11-10T03:21:30.925Z,100281.66
2022-11-10T03:23:57.478Z,100279.00
2022-11-10T03:26:24.072Z,100286.94
2022-11-10T03:28:50.836Z,100278.09
2022-11-10T03:31:17.392Z,100280.69
2022-11-10T03:33:43.964Z,100283.31
2022-11-10T03:36:10.512Z,100275.34
2022-11-10T03:38:37.067Z,100281.50
2022-11-10T03:41:18.672Z,100283.28
2022-11-10T03:43:46.286Z,100286.72
2022-11-10T03:46:12.852Z,100290.28
2022-11-10T03:48:39.424Z,100289.44
2022-11-10T03:51:09.102Z,100295.50
2022-11-10T03:53:35.726Z,100299.00
2022-11-10T03:56:03.886Z,100303.41
2022-11-10T03:58:30.593Z,100305.19
2022-11-10T04:00:57.526Z,100302.56
2022-11-10T04:03:26.330Z,100314.00
2022-11-10T04:06:11.576Z,100318.25
2022-11-10T04:08:56.685Z,100322.56
2022-11-10T04:11:42.187Z,100319.94
2022-11-10T04:14:27.518Z,100317.38
2022-11-10T04:16:54.218Z,100310.34
2022-11-10T04:19:20.760Z,100313.00
2022-11-10T04:21:47.548Z,100311.22
2022-11-10T04:24:14.288Z,100313.06
2022-11-10T04:26:42.823Z,100321.00
2022-11-10T04:29:11.440Z,100321.84
2022-11-10T04:31:41.806Z,100328.81
2022-11-10T04:34:11.101Z,100333.06
2022-11-10T04:36:40.022Z,100334.00
2022-11-10T04:39:08.069Z,100334.00
2022-11-10T04:41:35.259Z,100335.72
2022-11-10T04:44:01.871Z,100340.16
2022-11-10T04:46:32.594Z,100337.50
2022-11-10T04:48:59.861Z,100331.34
2022-11-10T04:51:35.105Z,100333.16
2022-11-10T04:54:05.079Z,100342.69
2022-11-10T04:56:31.782Z,100348.91
2022-11-10T04:58:58.410Z,100349.69
2022-11-10T05:01:27.748Z,100348.75
2022-11-10T05:03:55.305Z,100346.13
2022-11-10T05:06:22.691Z,100348.75
2022-11-10T05:08:49.597Z,100350.50
2022-11-10T05:11:17.181Z,100358.38
2022-11-10T05:13:44.803Z,100358.34
2022-11-10T05:16:12.294Z,100365.28
2022-11-10T05:18:39.148Z,100366.19
2022-11-10T05:21:05.948Z,100375.81
2022-11-10T05:23:38.427Z,100369.69
2022-11-10T05:26:09.464Z,100368.81
2022-11-10T05:28:36.237Z,100372.31
2022-11-10T05:31:03.495Z,100371.47
2022-11-10T05:33:30.257Z,100374.13
2022-11-10T05:35:56.991Z,100378.50
2022-11-10T05:38:23.874Z,100392.63
2022-11-10T05:40:50.575Z,100391.63
2022-11-10T05:43:17.172Z,100389.84
2022-11-10T05:45:43.724Z,100403.97
2022-11-10T05:48:10.691Z,100403.91
2022-11-10T05:50:37.436Z,100418.00
2022-11-10T05:53:03.969Z,100423.19
2022-11-10T05:55:30.890Z,100430.19
2022-11-10T05:57:57.850Z,100425.78
2022-11-10T06:00:28.427Z,100429.22
2022-11-10T06:02:59.148Z,100424.78
2022-11-10T06:05:30.952Z,100441.53
2022-11-10T06:07:58.493Z,100441.50
2022-11-10T06:10:25.843Z,100445.84
2022-11-10T06:12:52.564Z,100451.16
2022-11-10T06:15:19.388Z,100452.88
2022-11-10T06:17:46.023Z,100456.56
2022-11-10T06:20:14.690Z,100458.22
2022-11-10T06:22:41.488Z,100457.41
2022-11-10T06:25:09.325Z,100461.84
2022-11-10T06:27:36.203Z,100465.44
2022-11-10T06:30:03.712Z,100462.78
2022-11-10T06:32:30.309Z,100470.72
2022-11-10T06:35:00.433Z,100475.19
2022-11-10T06:37:27.439Z,100480.44
2022-11-10T06:39:54.050Z,100489.25
2022-11-10T06:42:20.636Z,100486.72
2022-11-10T06:44:47.189Z,100486.78
2022-11-10T06:47:17.037Z,100496.53
2022-11-10T06:49:43.597Z,100493.06
2022-11-10T06:52:10.123Z,100494.84
2022-11-10T06:54:36.773Z,100505.44
2022-11-10T06:57:03.345Z,100510.69
2022-11-10T06:59:29.917Z,100515.06
2022-11-10T07:01:56.477Z,100529.16
2022-11-10T07:04:23.121Z,100529.16
2022-11-10T07:06:49.747Z,100533.53
2022-11-10T07:09:16.430Z,100535.28
2022-11-10T07:11:43.329Z,100534.34
2022-11-10T07:14:10.382Z,100532.53
2022-11-10T07:16:36.980Z,100543.13
2022-11-10T07:19:03.771Z,100548.41
2022-11-10T07:21:30.396Z,100549.28
2022-11-10T07:23:56.956Z,100545.69
2022-11-10T07:26:23.582Z,100547.38
2022-11-10T07:28:50.147Z,100546.47
2022-11-10T07:31:16.717Z,100556.94
2022-11-10T07:33:44.147Z,100561.28
2022-11-10T07:36:10.761Z,100548.97
2022-11-10T07:38:37.424Z,100552.47
2022-11-10T07:41:04.110Z,100553.31
2022-11-10T07:43:30.668Z,100567.34
2022-11-10T07:45:57.741Z,100570.81
2022-11-10T07:48:24.298Z,100576.06
2022-11-10T07:50:51.211Z,100574.31
2022-11-10T07:53:20.652Z,100574.22
2022-11-10T07:55:48.143Z,100579.50
2022-11-10T07:58:17.453Z,100577.59
2022-11-10T08:00:45.032Z,100582.81
2022-11-10T08:03:15.230Z,100569.59
2022-11-10T08:05:41.927Z,100580.09
2022-11-10T08:08:08.627Z,100576.59
2022-11-10T08:10:36.105Z,100581.78
2022-11-10T08:13:05.546Z,100589.69
2022-11-10T08:15:33.363Z,100587.81
2022-11-10T08:18:08.856Z,100590.38
2022-11-10T08:20:35.704Z,100598.34
2022-11-10T08:23:05.624Z,100602.59
2022-11-10T08:25:35.305Z,100600.78
2022-11-10T08:28:07.947Z,100597.16
2022-11-10T08:30:36.291Z,100592.63
2022-11-10T08:33:04.991Z,100591.63
2022-11-10T08:35:34.738Z,100587.22
2022-11-10T08:38:27.630Z,100585.34
2022-11-10T08:40:57.496Z,100586.97
2022-11-10T08:43:25.030Z,100589.50
2022-11-10T08:45:54.776Z,100602.63
2022-11-10T08:48:21.374Z,100599.94
2022-11-10T08:50:49.634Z,100594.56
2022-11-10T08:53:19.601Z,100591.81
2022-11-10T08:55:47.004Z,100602.41
2022-11-10T08:58:17.539Z,100601.59
2022-11-10T09:00:44.910Z,100602.63
2022-11-10T09:03:23.804Z,100595.63
2022-11-10T09:05:57.645Z,100591.06
2022-11-10T09:08:24.781Z,100593.53
2022-11-10T09:10:51.421Z,100593.50
2022-11-10T09:13:23.466Z,100596.91
2022-11-10T09:15:52.840Z,100610.03
2022-11-10T09:18:19.439Z,100607.28
2022-11-10T09:20:46.333Z,100606.13
2022-11-10T09:23:15.923Z,100608.59
2022-11-10T09:25:48.304Z,100612.00
2022-11-10T09:28:16.216Z,100619.69
2022-11-10T09:30:45.748Z,100625.72
2022-11-10T09:33:12.596Z,100636.22
2022-11-10T09:35:39.302Z,100636.19
2022-11-10T09:38:06.271Z,100635.19
2022-11-10T09:40:57.991Z,100635.88
2022-11-10T09:43:53.757Z,100636.41
2022-11-10T09:46:40.591Z,100640.72
2022-11-10T09:49:12.901Z,100647.75
2022-11-10T09:51:47.097Z,100656.66
2022-11-10T09:54:21.090Z,100653.06
2022-11-10T09:56:48.002Z,100664.53
2022-11-10T09:59:26.691Z,100662.69
2022-11-10T10:02:03.221Z,100663.56
2022-11-10T10:04:51.689Z,100672.28
2022-11-10T10:07:55.599Z,100672.19
2022-11-10T10:10:34.453Z,100678.19
2022-11-10T10:13:51.155Z,100671.88
2022-11-10T10:16:23.345Z,100690.41
2022-11-10T10:18:55.737Z,100686.03
2022-11-10T10:21:51.758Z,100679.84
2022-11-10T10:24:22.356Z,100690.41
2022-11-10T10:26:59.110Z,100698.31
2022-11-10T10:29:37.001Z,100689.47
2022-11-10T10:32:04.587Z,100696.66
2022-11-10T10:34:34.494Z,100697.56
2022-11-10T10:37:01.582Z,100695.84
2022-11-10T10:39:42.671Z,100698.47
2022-11-10T10:42:35.415Z,100698.38
2022-11-10T10:45:23.226Z,100694.78
2022-11-10T10:47:53.593Z,100700.91
2022-11-10T10:50:33.610Z,100705.28
2022-11-10T10:53:14.358Z,100706.22
2022-11-10T10:56:16.284Z,100704.50
2022-11-10T10:58:54.770Z,100701.84
2022-11-10T11:01:31.864Z,100701.84
2022-11-10T11:04:04.936Z,100718.63
2022-11-10T11:06:33.440Z,100717.75
2022-11-10T11:09:38.489Z,100715.91
2022-11-10T11:12:08.734Z,100712.38
2022-11-10T11:14:35.321Z,100719.41
2022-11-10T11:17:19.875Z,100731.72
2022-11-10T11:19:46.640Z,100733.31
2022-11-10T11:22:16.049Z,100727.78
2022-11-10T11:25:17.156Z,100729.38
2022-11-10T11:27:53.096Z,100725.78
2022-11-10T11:30:23.923Z,100733.63
2022-11-10T11:33:12.757Z,100733.59
2022-11-10T11:35:39.325Z,100725.56
2022-11-10T11:38:34.211Z,100730.88
2022-11-10T11:41:19.200Z,100723.75
2022-11-10T11:43:57.605Z,100729.03
2022-11-10T11:46:49.349Z,100729.97
2022-11-10T11:49:28.192Z,100746.75
2022-11-10T11:52:06.848Z,100745.81
2022-11-10T11:54:51.944Z,100749.41
2022-11-10T11:58:04.041Z,100739.66
2022-11-10T12:00:56.047Z,100743.22
2022-11-10T12:03:38.306Z,100748.66
2022-11-10T12:06:33.007Z,100745.94
2022-11-10T12:09:41.399Z,100750.38
2022-11-10T12:12:07.895Z,100746.00
2022-11-10T12:14:55.691Z,100748.66
2022-11-10T12:17:34.262Z,100746.97
2022-11-10T12:20:19.303Z,100747.03
2022-11-10T12:22:57.853Z,100762.16
2022-11-10T12:25:49.100Z,100760.44
2022-11-10T12:28:25.883Z,100749.88
2022-11-10T12:31:01.731Z,100750.84
2022-11-10T12:33:34.863Z,100760.59
2022-11-10T12:36:05.733Z,100760.66
2022-11-10T12:39:00.901Z,100762.47
2022-11-10T12:41:37.375Z,100762.47
2022-11-10T12:44:41.676Z,100765.03
2022-11-10T12:47:15.817Z,100768.63
2022-11-10T12:49:57.791Z,100764.22
2022-11-10T12:52:36.701Z,100766.88
2022-11-10T12:55:04.298Z,100769.59
2022-11-10T12:57:31.904Z,100779.38
2022-11-10T13:00:08.256Z,100784.72
2022-11-10T13:02:40.490Z,100787.44
2022-11-10T13:05:25.689Z,100791.03
2022-11-10T13:08:27.221Z,100788.41
2022-11-10T13:11:12.200Z,100795.50
2022-11-10T13:13:46.078Z,100813.31
2022-11-10T13:16:41.264Z,100813.41
2022-11-10T13:19:38.945Z,100825.00
2022-11-10T13:22:10.234Z,100825.97
2022-11-10T13:24:42.600Z,100816.38
2022-11-10T13:27:33.528Z,100819.91
2022-11-10T13:30:00.358Z,100819.97
2022-11-10T13:32:34.167Z,100812.81
2022-11-10T13:35:28.347Z,100803.94
2022-11-10T13:37:56.560Z,100810.97
2022-11-10T13:40:23.372Z,100802.09
2022-11-10T13:42:58.845Z,100805.66
2022-11-10T13:45:34.460Z,100802.09
2022-11-10T13:48:27.810Z,100803.00
2022-11-10T13:51:08.228Z,100810.22
2022-11-10T13:53:40.831Z,100812.13
2022-11-10T13:56:19.612Z,100811.47
2022-11-10T13:58:46.655Z,100824.88
2022-11-10T14:01:19.056Z,100819.75
2022-11-10T14:03:48.751Z,100831.31
2022-11-10T14:06:22.662Z,100844.69
2022-11-10T14:09:18.422Z,100847.59
2022-11-10T14:11:56.709Z,100858.41
2022-11-10T14:14:33.665Z,100862.88
2022-11-10T14:17:00.977Z,100862.94
2022-11-10T14:19:39.028Z,100872.00
2022-11-10T14:22:27.465Z,100873.91
2022-11-10T14:25:01.824Z,100879.31
2022-11-10T14:27:32.272Z,100885.59
2022-11-10T14:30:08.170Z,100892.72
2022-11-10T14:32:35.752Z,100902.50
2022-11-10T14:35:02.588Z,100914.88
2022-11-10T14:37:29.987Z,100908.72
2022-11-10T14:40:02.097Z,100903.44
2022-11-10T14:42:31.340Z,100915.75
2022-11-10T14:45:16.215Z,100921.13
2022-11-10T14:47:43.356Z,100926.41
2022-11-10T14:50:18.893Z,100933.53
2022-11-10T14:52:48.440Z,100935.31
2022-11-10T14:55:20.401Z,100933.53
2022-11-10T14:57:54.043Z,100937.88
2022-11-10T15:00:25.688Z,100934.22
2022-11-10T15:02:54.824Z,100946.44
2022-11-10T15:05:21.871Z,100938.41
2022-11-10T15:07:52.695Z,100929.47
2022-11-10T15:10:25.556Z,100924.94
2022-11-10T15:13:00.264Z,100922.28
2022-11-10T15:15:26.936Z,100926.66
2022-11-10T15:17:53.859Z,100926.66
2022-11-10T15:20:57.825Z,100925.91
2022-11-10T15:23:33.577Z,100924.25
2022-11-10T15:26:00.742Z,100940.25
2022-11-10T15:28:35.145Z,100946.56
2022-11-10T15:31:05.467Z,100951.03
2022-11-10T15:33:35.591Z,100945.03
2022-11-10T15:36:35.968Z,100949.53
2022-11-10T15:39:11.732Z,100948.66
2022-11-10T15:41:43.440Z,100936.44
2022-11-10T15:44:28.125Z,100936.44
2022-11-10T15:46:56.861Z,100940.03
2022-11-10T15:49:27.440Z,100937.47
2022-11-10T15:52:02.867Z,100941.06
2022-11-10T15:54:32.043Z,100936.72
2022-11-10T15:56:58.629Z,100944.78
2022-11-10T15:59:25.238Z,100936.94
2022-11-10T16:01:52.703Z,100943.09
2022-11-10T16:04:19.367Z,100944.88
2022-11-10T16:06:47.203Z,100944.91
2022-11-10T16:09:14.229Z,100953.81
2022-11-10T16:11:44.148Z,100943.34
2022-11-10T16:14:14.640Z,100945.09
2022-11-10T16:16:42.000Z,100946.06
2022-11-10T16:19:12.725Z,100946.16
2022-11-10T16:21:39.391Z,100948.84
2022-11-10T16:24:06.306Z,100950.69
2022-11-10T16:26:34.529Z,100944.63
2022-11-10T16:29:01.555Z,100950.81
2022-11-10T16:31:28.283Z,100954.44
2022-11-10T16:33:55.197Z,100946.59
2022-11-10T16:36:26.200Z,100939.63
2022-11-10T16:38:54.174Z,100944.94
2022-11-10T16:41:20.959Z,100954.63
2022-11-10T16:43:47.790Z,100944.97
2022-11-10T16:46:22.016Z,100930.00
2022-11-10T16:48:51.281Z,100932.63
2022-11-10T16:51:18.320Z,100935.28
2022-11-10T16:53:45.522Z,100934.38
2022-11-10T16:56:16.231Z,100934.38
2022-11-10T16:58:42.956Z,100947.66
2022-11-10T17:01:20.713Z,100940.59
2022-11-10T17:03:53.473Z,100952.06
2022-11-10T17:06:23.192Z,100952.06
2022-11-10T17:08:52.112Z,100953.91
2022-11-10T17:11:19.219Z,100952.13
2022-11-10T17:13:45.874Z,100948.63
2022-11-10T17:16:29.742Z,100956.56
2022-11-10T17:18:59.516Z,100952.19
2022-11-10T17:21:32.543Z,100948.66
2022-11-10T17:24:00.329Z,100929.34
2022-11-10T17:26:27.940Z,100931.13
2022-11-10T17:28:54.591Z,100932.03
2022-11-10T17:31:21.219Z,100927.69
2022-11-10T17:33:47.825Z,100931.25
2022-11-10T17:36:18.946Z,100933.94
2022-11-10T17:38:46.167Z,100926.91
2022-11-10T17:41:17.943Z,100928.69
2022-11-10T17:43:47.887Z,100926.06
2022-11-10T17:46:15.330Z,100933.13
2022-11-10T17:48:42.835Z,100940.16
2022-11-10T17:51:19.248Z,100934.00
2022-11-10T17:53:46.025Z,100932.22
2022-11-10T17:56:13.167Z,100938.44
2022-11-10T17:58:40.050Z,100934.91
2022-11-10T18:01:18.553Z,100930.44
2022-11-10T18:03:48.096Z,100927.84
2022-11-10T18:06:15.915Z,100928.69
2022-11-10T18:08:43.104Z,100936.63
2022-11-10T18:11:11.830Z,100933.94
2022-11-10T18:13:39.880Z,100930.44
2022-11-10T18:16:09.008Z,100933.06
2022-11-10T18:18:36.790Z,100926.06
2022-11-10T18:21:05.456Z,100923.34
2022-11-10T18:23:32.660Z,100932.97
2022-11-10T18:26:07.468Z,100923.16
2022-11-10T18:28:35.095Z,100916.94
2022-11-10T18:31:13.169Z,100915.13
2022-11-10T18:33:40.622Z,100914.09
2022-11-10T18:36:07.641Z,100913.19
2022-11-10T18:38:34.241Z,100918.38
2022-11-10T18:41:25.274Z,100910.44
2022-11-10T18:43:52.281Z,100906.88
2022-11-10T18:46:18.985Z,100901.56
2022-11-10T18:48:46.897Z,100897.13
2022-11-10T18:51:14.280Z,100893.53
2022-11-10T18:53:40.905Z,100890.81
2022-11-10T18:56:07.668Z,100885.50
2022-11-10T18:58:34.330Z,100882.78
2022-11-10T19:01:09.565Z,100884.50
2022-11-10T19:03:36.985Z,100887.97
2022-11-10T19:06:03.838Z,100895.00
2022-11-10T19:08:30.402Z,100887.03
2022-11-10T19:10:57.783Z,100887.03
2022-11-10T19:13:24.858Z,100888.69
2022-11-10T19:15:51.843Z,100882.44
2022-11-10T19:18:18.404Z,100878.84
2022-11-10T19:20:45.050Z,100893.00
2022-11-10T19:23:11.662Z,100887.63
2022-11-10T19:25:38.206Z,100891.16
2022-11-10T19:28:04.869Z,100898.16
2022-11-10T19:30:31.726Z,100885.75
2022-11-10T19:32:59.224Z,100892.78
2022-11-10T19:35:25.782Z,100896.28
2022-11-10T19:37:54.114Z,100896.25
2022-11-10T19:40:21.903Z,100890.88
2022-11-10T19:42:48.537Z,100892.59
2022-11-10T19:45:16.647Z,100900.50
2022-11-10T19:47:43.790Z,100903.09
2022-11-10T19:50:10.519Z,100892.50
2022-11-10T19:52:37.122Z,100894.22
2022-11-10T19:55:04.021Z,100895.06
2022-11-10T19:57:30.641Z,100889.69
2022-11-10T19:59:57.266Z,100898.47
2022-11-10T20:02:23.847Z,100891.38
2022-11-10T20:05:08.949Z,100880.75
2022-11-10T20:07:54.107Z,100876.25
2022-11-10T20:10:20.714Z,100877.09
2022-11-10T20:12:47.402Z,100879.66
2022-11-10T20:15:14.135Z,100875.13
2022-11-10T20:17:40.928Z,100876.81
2022-11-10T20:20:07.924Z,100876.75
2022-11-10T20:22:34.882Z,100872.34
2022-11-10T20:25:01.584Z,100872.38
2022-11-10T20:27:28.921Z,100879.47
2022-11-10T20:29:55.627Z,100879.53
2022-11-10T20:32:22.240Z,100875.13
2022-11-10T20:34:48.948Z,100882.28
2022-11-10T20:37:15.570Z,100884.88
2022-11-10T20:39:42.240Z,100890.16
2022-11-10T20:42:10.380Z,100877.75
2022-11-10T20:44:37.169Z,100872.44
2022-11-10T20:47:04.504Z,100876.00
2022-11-10T20:49:31.456Z,100869.78
2022-11-10T20:51:59.846Z,100870.69
2022-11-10T20:54:27.520Z,100860.97
2022-11-10T20:56:54.523Z,100861.84
2022-11-10T20:59:23.368Z,100865.38
2022-11-10T21:01:49.965Z,100865.38
2022-11-10T21:04:16.793Z,100859.22
2022-11-10T21:06:43.418Z,100863.72
2022-11-10T21:09:12.942Z,100863.75
2022-11-10T21:11:58.357Z,100867.25
2022-11-10T21:14:24.931Z,100859.31
2022-11-10T21:16:51.488Z,100858.38
2022-11-10T21:19:31.404Z,100854.00
2022-11-10T21:22:01.350Z,100849.47
2022-11-10T21:24:29.190Z,100843.22
2022-11-10T21:26:57.137Z,100842.28
2022-11-10T21:29:25.984Z,100843.13
2022-11-10T21:31:54.602Z,100830.81
2022-11-10T21:34:21.184Z,100833.38
2022-11-10T21:36:47.911Z,100835.94
2022-11-10T21:39:14.461Z,100831.47
2022-11-10T21:41:42.788Z,100827.81
2022-11-10T21:44:09.372Z,100835.66
2022-11-10T21:46:35.937Z,100840.00
2022-11-10T21:49:07.438Z,100831.13
2022-11-10T21:51:34.548Z,100832.91
2022-11-10T21:54:01.093Z,100820.41
2022-11-10T21:56:27.640Z,100831.81
2022-11-10T21:58:54.212Z,100827.25
2022-11-10T22:01:21.082Z,100817.47
2022-11-10T22:03:48.265Z,100826.25
2022-11-10T22:06:17.227Z,100810.28
2022-11-10T22:08:45.440Z,100811.09
2022-11-10T22:11:33.837Z,100811.91
2022-11-10T22:14:19.747Z,100810.09
2022-11-10T22:17:06.852Z,100803.84
2022-11-10T22:19:36.204Z,100795.88
2022-11-10T22:22:04.134Z,100793.97
2022-11-10T22:24:31.545Z,100778.06
2022-11-10T22:27:03.775Z,100771.84
2022-11-10T22:29:33.717Z,100790.28
2022-11-10T22:32:01.263Z,100784.94
2022-11-10T22:34:28.073Z,100784.00
2022-11-10T22:36:59.672Z,100778.69
2022-11-10T22:39:46.533Z,100775.09
2022-11-10T22:42:34.780Z,100775.88
2022-11-10T22:45:01.694Z,100771.50
2022-11-10T22:47:48.426Z,100775.88
2022-11-10T22:50:15.124Z,100772.31
2022-11-10T22:52:41.689Z,100770.53
2022-11-10T22:55:08.589Z,100771.41
2022-11-10T22:57:35.168Z,100760.84
2022-11-10T23:00:01.772Z,100754.63
2022-11-10T23:02:30.460Z,100754.53
2022-11-10T23:04:59.248Z,100748.34
2022-11-10T23:07:25.814Z,100743.03
2022-11-10T23:09:55.407Z,100747.41
2022-11-10T23:12:22.013Z,100726.19
2022-11-10T23:14:51.514Z,100731.41
2022-11-10T23:17:18.089Z,100719.94
2022-11-10T23:19:44.806Z,100709.31
2022-11-10T23:22:11.387Z,100712.84
2022-11-10T23:24:38.142Z,100711.09
2022-11-10T23:27:04.765Z,100704.84
2022-11-10T23:29:31.342Z,100706.63
2022-11-10T23:31:57.916Z,100704.75
2022-11-10T23:34:24.523Z,100698.56
2022-11-10T23:36:51.084Z,100702.06
2022-11-10T23:39:21.881Z,100695.94
2022-11-10T23:41:48.433Z,100693.28
2022-11-10T23:44:15.075Z,100704.75
2022-11-10T23:46:44.481Z,100709.22
2022-11-10T23:49:11.049Z,100703.91
2022-11-10T23:51:37.615Z,100700.31
2022-11-10T23:54:04.353Z,100695.94
2022-11-10T23:56:30.918Z,100695.00
2022-11-10T23:58:57.477Z,100693.25
